Girolata — FPOD — position and weather

sailwx.info

Track history (hours):
 
Tides and Currents Weather Stations Pressure Air Temp Water Temp Dewpoint Dewpoint Depression Visibility Wind Speed Wind Dir Waves Ship Positions

Girolata

Last reported at 2017-Jun-25 22:11 UTC. Time now 2017-Jun-26 12:10 UTC.
Position N 42°23' E 007°10'.

Length 177 m; beam 27 m.

Type: Passenger vessel. MMSI: 226245000.

Date/timePositionNaut miles runAvg speedWind from/ knotsBaromVisibWave heightAir tempDewpointWater temp
2017-Jun-25 22:11N 42°23' E 007°10'616.7
2017-Jun-25 21:51N 42°21' E 007°17'616.7
2017-Jun-25 21:30N 42°18' E 007°24'1016.6
2017-Jun-25 20:54N 42°13' E 007°36'8 0.4
2017-Jun-25 02:01N 42°09' E 007°45'015.2
2017-Jun-25 02:00N 42°10' E 007°45'815.3
2017-Jun-25 01:30N 42°14' E 007°36'815.4
2017-Jun-25 01:00N 42°17' E 007°27'815.3
2017-Jun-25 00:31N 42°20' E 007°17'815.3
2017-Jun-25 00:00N 42°23' E 007°08'815.5
2017-Jun-24 23:30N 42°25' E 006°58'8715.4
2017-Jun-24 17:53N 43°12' E 005°18'147 3.7
2017-Jun-23 02:32N 41°58' E 008°11'218.5
2017-Jun-23 02:25N 41°59' E 008°09'818.6
2017-Jun-23 02:00N 42°03' E 007°60'918.5
2017-Jun-23 01:30N 42°07' E 007°49'918.3
2017-Jun-23 01:00N 42°12' E 007°38'918.4
2017-Jun-23 00:30N 42°16' E 007°27'918.2
2017-Jun-23 00:00N 42°21' E 007°17'918.2
2017-Jun-22 23:30N 42°25' E 007°06'918.0
2017-Jun-22 23:00N 42°29' E 006°55'918.2
2017-Jun-22 22:30N 42°34' E 006°44'918.5
2017-Jun-22 22:00N 42°38' E 006°33'8 0.4
2017-Jun-21 23:38N 42°35' E 006°44'816.7
2017-Jun-21 23:10N 42°32' E 006°53'316.5
2017-Jun-21 23:00N 42°30' E 006°56'916.3
2017-Jun-21 22:28N 42°25' E 007°06'1316.5
2017-Jun-21 21:40N 42°19' E 007°21'316.5
2017-Jun-21 21:30N 42°18' E 007°24'816.6
2017-Jun-21 21:00N 42°14' E 007°34'816.6
2017-Jun-21 20:31N 42°09' E 007°44'916.6
2017-Jun-21 20:00N 42°05' E 007°54'38 2.3
2017-Jun-21 03:50N 41°51' E 008°41'3317.8
2017-Jun-21 01:59N 42°03' E 007°59'1318.8
2017-Jun-21 01:16N 42°10' E 007°44'718.7
2017-Jun-21 00:54N 42°13' E 007°35'818.6
2017-Jun-21 00:26N 42°17' E 007°25'918.6
2017-Jun-20 23:56N 42°22' E 007°14'818.7
2017-Jun-20 23:30N 42°25' E 007°05'919.1
2017-Jun-20 23:00N 42°29' E 006°53'1019.1
2017-Jun-20 22:30N 42°34' E 006°41'1019.2
2017-Jun-20 22:00N 42°40' E 006°31'918.9
2017-Jun-20 21:30N 42°45' E 006°20'918.5
2017-Jun-20 21:00N 42°49' E 006°09'918.4
2017-Jun-20 20:29N 42°53' E 005°58'3616.9
2017-Jun-20 18:22N 43°17' E 005°20'2 0.7
2017-Jun-20 14:51N 43°19' E 005°22'0 0.0
2017-Jun-20 14:30N 43°19' E 005°22'0 0.0
2017-Jun-20 12:57N 43°19' E 005°22'0 0.0
2017-Jun-20 12:30N 43°19' E 005°22'0 0.0
2017-Jun-20 12:00N 43°19' E 005°22'0 0.0
2017-Jun-20 11:30N 43°19' E 005°22'0 0.0
2017-Jun-20 11:00N 43°19' E 005°22'0 0.0
2017-Jun-20 10:00N 43°19' E 005°22'0 0.0
2017-Jun-20 08:42N 43°19' E 005°22'0 0.0
2017-Jun-20 07:54N 43°19' E 005°22'0 0.0
2017-Jun-20 04:35N 43°19' E 005°22'1310.8
2017-Jun-20 03:24N 43°06' E 005°27'1316.4
2017-Jun-20 02:36N 42°60' E 005°43'1316.7
2017-Jun-20 01:51N 42°54' E 005°58'616.8
2017-Jun-20 01:29N 42°51' E 006°05'1416.7
2017-Jun-20 00:39N 42°44' E 006°21'316.7
2017-Jun-20 00:28N 42°42' E 006°25'1016.5
2017-Jun-19 23:53N 42°38' E 006°36'616.5
2017-Jun-19 23:30N 42°35' E 006°44'1416.6
2017-Jun-19 22:38N 42°28' E 007°01'1116.6
2017-Jun-19 21:57N 42°22' E 007°15'816.8
2017-Jun-19 21:29N 42°18' E 007°24'1316.7
2017-Jun-19 20:41N 42°12' E 007°39'316.2
2017-Jun-19 20:31N 42°10' E 007°43'916.4
2017-Jun-19 19:57N 42°06' E 007°53'816.5
2017-Jun-19 19:27N 42°01' E 008°03'1316.7
2017-Jun-19 18:38N 41°55' E 008°19'27 1.6
2017-Jun-19 01:25N 42°08' E 007°46'716.7
2017-Jun-19 01:00N 42°11' E 007°38'816.9
2017-Jun-19 00:30N 42°15' E 007°28'816.7
2017-Jun-19 00:01N 42°19' E 007°18'103 5.3
2017-Jun-18 04:45N 43°13' E 005°18'10715.1
2017-Jun-17 21:38N 42°18' E 007°24'215.5
2017-Jun-17 21:31N 42°17' E 007°26'1115.4
2017-Jun-17 20:47N 42°11' E 007°39'415.4
2017-Jun-17 20:29N 42°09' E 007°45'715.3
2017-Jun-17 20:01N 42°05' E 007°53'815.7
2017-Jun-17 19:30N 42°01' E 008°02'915.7
2017-Jun-17 18:57N 41°57' E 008°12'716.2
2017-Jun-17 18:30N 41°53' E 008°21'1016.1
2017-Jun-17 17:51N 41°49' E 008°34'38 2.4
2017-Jun-17 01:36N 42°08' E 007°48'219.5
2017-Jun-17 01:30N 42°08' E 007°46'1219.5
2017-Jun-17 00:53N 42°14' E 007°32'719.5
2017-Jun-17 00:30N 42°18' E 007°23'1019.1
2017-Jun-17 00:00N 42°22' E 007°12'1019.2
2017-Jun-16 23:30N 42°27' E 007°00'1019.5
2017-Jun-16 23:00N 42°32' E 006°49'1019.8
2017-Jun-16 22:30N 42°36' E 006°37'1019.8
2017-Jun-16 22:00N 42°42' E 006°26'917.7
2017-Jun-16 21:30N 42°46' E 006°15'918.6
2017-Jun-16 21:00N 42°51' E 006°04'918.9
2017-Jun-16 20:30N 42°55' E 005°53'3118.6
2017-Jun-16 18:50N 43°13' E 005°18'6 0.4
2017-Jun-16 04:53N 43°19' E 005°22'2211.0
2017-Jun-16 02:53N 43°01' E 005°39'2117.0
2017-Jun-16 01:40N 42°51' E 006°04'2417.0
2017-Jun-16 00:14N 42°39' E 006°33'416.9
2017-Jun-15 23:58N 42°37' E 006°38'916.6
2017-Jun-15 23:24N 42°33' E 006°50'1118.6
2017-Jun-15 22:50N 42°27' E 007°02'413.2
2017-Jun-15 22:30N 42°26' E 007°08'  
Track history (hours):
 
Tides and Currents Weather Stations Pressure Air Temp Water Temp Dewpoint Dewpoint Depression Visibility Wind Speed Wind Dir Waves Ship Positions

Girolata

Last reported at 2017-Jun-25 22:11 UTC. Time now 2017-Jun-26 12:10 UTC.
Position N 42°23' E 007°10'.

Length 177 m; beam 27 m.

Type: Passenger vessel. MMSI: 226245000.

Date/timePositionNaut miles runAvg speedWind from/ knotsBaromVisibWave heightAir tempDewpointWater temp
2017-Jun-25 22:11N 42°23' E 007°10'616.7
2017-Jun-25 21:51N 42°21' E 007°17'616.7
2017-Jun-25 21:30N 42°18' E 007°24'1016.6
2017-Jun-25 20:54N 42°13' E 007°36'8 0.4
2017-Jun-25 02:01N 42°09' E 007°45'015.2
2017-Jun-25 02:00N 42°10' E 007°45'815.3
2017-Jun-25 01:30N 42°14' E 007°36'815.4
2017-Jun-25 01:00N 42°17' E 007°27'815.3
2017-Jun-25 00:31N 42°20' E 007°17'815.3
2017-Jun-25 00:00N 42°23' E 007°08'815.5
2017-Jun-24 23:30N 42°25' E 006°58'8715.4
2017-Jun-24 17:53N 43°12' E 005°18'147 3.7
2017-Jun-23 02:32N 41°58' E 008°11'218.5
2017-Jun-23 02:25N 41°59' E 008°09'818.6
2017-Jun-23 02:00N 42°03' E 007°60'918.5
2017-Jun-23 01:30N 42°07' E 007°49'918.3
2017-Jun-23 01:00N 42°12' E 007°38'918.4
2017-Jun-23 00:30N 42°16' E 007°27'918.2
2017-Jun-23 00:00N 42°21' E 007°17'918.2
2017-Jun-22 23:30N 42°25' E 007°06'918.0
2017-Jun-22 23:00N 42°29' E 006°55'918.2
2017-Jun-22 22:30N 42°34' E 006°44'918.5
2017-Jun-22 22:00N 42°38' E 006°33'8 0.4
2017-Jun-21 23:38N 42°35' E 006°44'816.7
2017-Jun-21 23:10N 42°32' E 006°53'316.5
2017-Jun-21 23:00N 42°30' E 006°56'916.3
2017-Jun-21 22:28N 42°25' E 007°06'1316.5
2017-Jun-21 21:40N 42°19' E 007°21'316.5
2017-Jun-21 21:30N 42°18' E 007°24'816.6
2017-Jun-21 21:00N 42°14' E 007°34'816.6
2017-Jun-21 20:31N 42°09' E 007°44'916.6
2017-Jun-21 20:00N 42°05' E 007°54'38 2.3
2017-Jun-21 03:50N 41°51' E 008°41'3317.8
2017-Jun-21 01:59N 42°03' E 007°59'1318.8
2017-Jun-21 01:16N 42°10' E 007°44'718.7
2017-Jun-21 00:54N 42°13' E 007°35'818.6
2017-Jun-21 00:26N 42°17' E 007°25'918.6
2017-Jun-20 23:56N 42°22' E 007°14'818.7
2017-Jun-20 23:30N 42°25' E 007°05'919.1
2017-Jun-20 23:00N 42°29' E 006°53'1019.1
2017-Jun-20 22:30N 42°34' E 006°41'1019.2
2017-Jun-20 22:00N 42°40' E 006°31'918.9
2017-Jun-20 21:30N 42°45' E 006°20'918.5
2017-Jun-20 21:00N 42°49' E 006°09'918.4
2017-Jun-20 20:29N 42°53' E 005°58'3616.9
2017-Jun-20 18:22N 43°17' E 005°20'2 0.7
2017-Jun-20 14:51N 43°19' E 005°22'0 0.0
2017-Jun-20 14:30N 43°19' E 005°22'0 0.0
2017-Jun-20 12:57N 43°19' E 005°22'0 0.0
2017-Jun-20 12:30N 43°19' E 005°22'0 0.0
2017-Jun-20 12:00N 43°19' E 005°22'0 0.0
2017-Jun-20 11:30N 43°19' E 005°22'0 0.0
2017-Jun-20 11:00N 43°19' E 005°22'0 0.0
2017-Jun-20 10:00N 43°19' E 005°22'0 0.0
2017-Jun-20 08:42N 43°19' E 005°22'0 0.0
2017-Jun-20 07:54N 43°19' E 005°22'0 0.0
2017-Jun-20 04:35N 43°19' E 005°22'1310.8
2017-Jun-20 03:24N 43°06' E 005°27'1316.4
2017-Jun-20 02:36N 42°60' E 005°43'1316.7
2017-Jun-20 01:51N 42°54' E 005°58'616.8
2017-Jun-20 01:29N 42°51' E 006°05'1416.7
2017-Jun-20 00:39N 42°44' E 006°21'316.7
2017-Jun-20 00:28N 42°42' E 006°25'1016.5
2017-Jun-19 23:53N 42°38' E 006°36'616.5
2017-Jun-19 23:30N 42°35' E 006°44'1416.6
2017-Jun-19 22:38N 42°28' E 007°01'1116.6
2017-Jun-19 21:57N 42°22' E 007°15'816.8
2017-Jun-19 21:29N 42°18' E 007°24'1316.7
2017-Jun-19 20:41N 42°12' E 007°39'316.2
2017-Jun-19 20:31N 42°10' E 007°43'916.4
2017-Jun-19 19:57N 42°06' E 007°53'816.5
2017-Jun-19 19:27N 42°01' E 008°03'1316.7
2017-Jun-19 18:38N 41°55' E 008°19'27 1.6
2017-Jun-19 01:25N 42°08' E 007°46'716.7
2017-Jun-19 01:00N 42°11' E 007°38'816.9
2017-Jun-19 00:30N 42°15' E 007°28'816.7
2017-Jun-19 00:01N 42°19' E 007°18'103 5.3
2017-Jun-18 04:45N 43°13' E 005°18'10715.1
2017-Jun-17 21:38N 42°18' E 007°24'215.5
2017-Jun-17 21:31N 42°17' E 007°26'1115.4
2017-Jun-17 20:47N 42°11' E 007°39'415.4
2017-Jun-17 20:29N 42°09' E 007°45'715.3
2017-Jun-17 20:01N 42°05' E 007°53'815.7
2017-Jun-17 19:30N 42°01' E 008°02'915.7
2017-Jun-17 18:57N 41°57' E 008°12'716.2
2017-Jun-17 18:30N 41°53' E 008°21'1016.1
2017-Jun-17 17:51N 41°49' E 008°34'38 2.4
2017-Jun-17 01:36N 42°08' E 007°48'219.5
2017-Jun-17 01:30N 42°08' E 007°46'1219.5
2017-Jun-17 00:53N 42°14' E 007°32'719.5
2017-Jun-17 00:30N 42°18' E 007°23'1019.1
2017-Jun-17 00:00N 42°22' E 007°12'1019.2
2017-Jun-16 23:30N 42°27' E 007°00'1019.5
2017-Jun-16 23:00N 42°32' E 006°49'1019.8
2017-Jun-16 22:30N 42°36' E 006°37'1019.8
2017-Jun-16 22:00N 42°42' E 006°26'917.7
2017-Jun-16 21:30N 42°46' E 006°15'918.6
2017-Jun-16 21:00N 42°51' E 006°04'918.9
2017-Jun-16 20:30N 42°55' E 005°53'3118.6
2017-Jun-16 18:50N 43°13' E 005°18'6 0.4
2017-Jun-16 04:53N 43°19' E 005°22'2211.0
2017-Jun-16 02:53N 43°01' E 005°39'2117.0
2017-Jun-16 01:40N 42°51' E 006°04'2417.0
2017-Jun-16 00:14N 42°39' E 006°33'416.9
2017-Jun-15 23:58N 42°37' E 006°38'916.6
2017-Jun-15 23:24N 42°33' E 006°50'1118.6
2017-Jun-15 22:50N 42°27' E 007°02'413.2
2017-Jun-15 22:30N 42°26' E 007°08'  

Dump ship's entire track history